CET,Max TemperatureF,Mean TemperatureF,Min TemperatureF,Max Dew PointF,MeanDew PointF,Min DewpointF,Max Humidity, Mean Humidity, Min Humidity, Max Sea Level PressureIn, Mean Sea Level PressureIn, Min Sea Level PressureIn, Max VisibilityMiles, Mean VisibilityMiles, Min VisibilityMiles, Max Wind SpeedMPH, Mean Wind SpeedMPH, Max Gust SpeedMPH,PrecipitationIn, CloudCover, Events, WindDirDegrees
2012-10-1,34,30,25,27,22,16,86,72,55,30.30,30.26,30.24,19,4,0,13,6,,0.04,4,Fog,106
2012-10-2,35,30,26,27,6,-22,80,43,4,30.33,30.30,30.27,12,5,1,12,5,,0.00,2,,64
2012-10-3,32,28,24,25,15,-2,86,59,20,30.33,30.30,30.27,19,7,1,12,8,,0.00,3,Fog,197
2012-10-4,28,26,23,27,21,14,93,79,44,30.33,30.26,30.21,12,5,0,23,10,,0.00,4,Fog-Snow,214
2012-10-5,36,33,30,27,13,-17,75,45,8,30.45,30.39,30.33,12,8,6,18,9,,0.00,1,,256
2012-10-6,33,30,28,21,2,-19,69,31,4,30.45,30.40,30.36,19,12,9,12,4,,0.00,,,222
2012-10-7,33,30,27,27,23,1,100,76,29,30.36,30.29,30.24,12,4,0,34,15,,0.00,2,Fog-Snow,318
2012-10-8,34,30,27,30,3,-20,93,43,4,30.33,30.31,30.24,19,4,0,18,9,,0.01,4,Fog-Snow,2
2012-10-9,29,26,24,25,23,21,93,83,73,30.24,30.17,30.12,0,0,0,32,16,,0.01,,Fog-Snow,345
2012-10-10,29,26,23,23,20,14,86,78,64,30.18,30.12,30.09,7,3,0,29,16,,0.04,3,Fog-Snow,25
2012-10-11,30,26,23,23,17,9,86,66,47,30.12,30.07,30.04,12,3,0,21,13,,0.00,5,Fog,199
2012-10-12,30,26,20,23,14,-22,86,65,5,30.09,30.04,30.01,16,2,0,23,10,,0.02,2,Fog-Snow,41
2012-10-13,21,19,17,16,-3,-22,80,42,5,30.09,30.02,29.95,16,6,4,24,13,,0.00,3,,195
2012-10-14,23,20,16,18,6,-11,93,58,16,29.92,29.78,29.68,7,2,0,32,21,,0.08,2,Fog-Snow,192
2012-10-15,20,15,10,18,10,-6,93,79,35,29.71,29.63,29.59,6,1,0,44,19,,0.08,,Fog-Snow,113
2012-10-16,27,18,9,23,-1,-22,93,44,4,30.15,29.93,29.71,6,5,0,34,24,,0.00,2,Fog-Snow,57
2012-10-17,30,26,23,25,19,10,93,70,32,30.30,30.21,30.12,19,3,0,37,23,,0.00,4,Fog-Snow,187
2012-10-18,33,28,23,14,5,-8,51,31,7,30.45,30.34,30.27,12,7,6,43,26,,0.00,2,,186
2012-10-19,35,32,30,16,-7,-17,51,18,4,30.45,30.44,30.42,12,6,6,34,28,,0.00,2,,175
2012-10-20,37,34,32,25,7,-17,70,34,4,30.48,30.46,30.45,12,7,6,24,14,,0.00,4,,172
2012-10-21,38,35,32,30,27,19,87,70,47,30.51,30.49,30.45,16,7,6,21,14,,0.00,2,,191
2012-10-22,39,36,32,32,28,24,80,72,46,30.51,30.50,30.48,19,8,6,21,10,,0.00,2,,174
2012-10-23,37,34,31,31,26,19,87,70,56,30.51,30.47,30.42,19,10,6,12,4,,0.00,1,,102
2012-10-24,36,34,31,23,-1,-18,60,26,4,30.42,30.32,30.27,6,6,6,15,3,,0.00,,,75
2012-10-25,38,34,30,28,11,-4,81,39,15,30.27,30.20,30.12,19,9,6,9,5,,0.00,,,121
2012-10-26,30,27,24,27,19,-8,100,74,8,30.09,29.84,29.56,6,2,0,30,10,,0.00,3,Fog-Snow,188
2012-10-27,25,16,5,25,16,1,100,90,79,29.53,29.29,29.15,6,1,0,33,8,,0.08,3,Fog-Snow,190
2012-10-28,6,4,1,1,-1,-4,85,80,72,29.47,29.20,28.97,0,0,0,40,19,,0.16,,Fog-Snow,58
2012-10-29,15,8,2,7,-2,-22,85,61,9,29.80,29.65,29.50,12,6,1,40,15,,0.00,2,Fog-Snow,60
2012-10-30,19,15,11,10,7,3,68,60,40,29.80,29.73,29.68,12,6,6,16,10,,0.00,1,,261
2012-10-31,20,17,14,18,8,-4,93,68,25,29.71,29.55,29.36,9,2,0,23,13,,0.02,1,Fog-Snow,146